createdAt,value
2018-03-22T00:00:36.764Z,9.90
2018-03-22T00:03:04.040Z,10.40
2018-03-22T00:05:30.909Z,10.50
2018-03-22T00:07:58.023Z,9.90
2018-03-22T00:10:25.175Z,10.30
2018-03-22T00:12:52.332Z,10.20
2018-03-22T00:15:19.217Z,10.30
2018-03-22T00:17:46.035Z,10.50
2018-03-22T00:20:12.934Z,9.90
2018-03-22T00:22:39.797Z,10.50
2018-03-22T00:25:06.663Z,9.98
2018-03-22T00:27:33.802Z,10.38
2018-03-22T00:30:00.955Z,9.65
2018-03-22T00:32:27.909Z,9.55
2018-03-22T00:34:54.742Z,10.90
2018-03-22T00:37:21.653Z,10.63
2018-03-22T00:39:48.838Z,10.93
2018-03-22T00:42:15.704Z,11.05
2018-03-22T00:44:42.541Z,10.70
2018-03-22T00:47:09.359Z,10.60
2018-03-22T00:49:36.212Z,10.53
2018-03-22T00:52:03.354Z,11.90
2018-03-22T00:54:30.480Z,11.80
2018-03-22T00:56:57.337Z,10.70
2018-03-22T00:59:24.227Z,11.00
2018-03-22T01:01:51.339Z,11.02
2018-03-22T01:04:18.159Z,10.52
2018-03-22T01:06:45.330Z,11.25
2018-03-22T01:09:12.187Z,10.93
2018-03-22T01:11:39.023Z,10.80
2018-03-22T01:14:05.859Z,10.60
2018-03-22T01:16:32.721Z,10.90
2018-03-22T01:19:00.045Z,9.93
2018-03-22T01:21:26.902Z,10.85
2018-03-22T01:23:53.866Z,9.60
2018-03-22T01:26:20.700Z,9.60
2018-03-22T01:28:47.547Z,9.48
2018-03-22T01:31:14.693Z,9.00
2018-03-22T01:33:41.526Z,9.05
2018-03-22T01:36:08.455Z,8.60
2018-03-22T01:38:35.317Z,9.20
2018-03-22T01:41:02.185Z,8.70
2018-03-22T01:43:30.027Z,8.05
2018-03-22T01:45:56.892Z,8.90
2018-03-22T01:48:23.715Z,8.00
2018-03-22T01:50:50.572Z,8.43
2018-03-22T01:53:17.673Z,7.95
2018-03-22T01:55:44.490Z,8.20
2018-03-22T01:58:11.356Z,7.78
2018-03-22T02:00:38.220Z,8.30
2018-03-22T02:03:05.088Z,8.17
2018-03-22T02:05:31.949Z,7.90
2018-03-22T02:07:58.801Z,7.75
2018-03-22T02:10:25.660Z,7.35
2018-03-22T02:12:52.501Z,7.00
2018-03-22T02:15:19.375Z,7.70
2018-03-22T02:17:46.203Z,8.10
2018-03-22T02:20:13.074Z,8.50
2018-03-22T02:22:39.943Z,7.80
2018-03-22T02:25:06.786Z,8.32
2018-03-22T02:27:33.599Z,8.70
2018-03-22T02:30:00.613Z,8.20
2018-03-22T02:32:27.821Z,8.50
2018-03-22T02:34:54.648Z,8.52
2018-03-22T02:37:21.798Z,9.00
2018-03-22T02:39:48.616Z,9.35
2018-03-22T02:42:15.455Z,10.00
2018-03-22T02:44:42.544Z,10.13
2018-03-22T02:47:09.379Z,11.20
2018-03-22T02:49:36.303Z,11.20
2018-03-22T02:52:03.213Z,13.13
2018-03-22T02:54:30.327Z,12.37
2018-03-22T02:56:57.190Z,13.10
2018-03-22T02:59:24.054Z,13.75
2018-03-22T03:01:50.893Z,13.60
2018-03-22T03:04:17.767Z,13.57
2018-03-22T03:06:44.612Z,15.40
2018-03-22T03:09:11.871Z,15.50
2018-03-22T03:11:38.715Z,15.43
2018-03-22T03:14:05.741Z,16.35
2018-03-22T03:16:32.954Z,16.70
2018-03-22T03:18:59.803Z,18.02
2018-03-22T03:21:26.631Z,18.75
2018-03-22T03:23:53.450Z,18.75
2018-03-22T03:26:20.627Z,20.23
2018-03-22T03:28:47.476Z,19.58
2018-03-22T03:31:14.341Z,20.50
2018-03-22T03:33:41.203Z,22.42
2018-03-22T03:36:08.064Z,24.50
2018-03-22T03:38:35.248Z,27.00
2018-03-22T03:41:02.109Z,27.23
2018-03-22T03:43:28.931Z,27.55
2018-03-22T03:45:55.816Z,25.67
2018-03-22T03:48:22.645Z,25.62
2018-03-22T03:50:49.767Z,25.62
2018-03-22T03:53:16.624Z,27.53
2018-03-22T03:55:43.768Z,27.08
2018-03-22T03:58:10.607Z,26.67
2018-03-22T04:00:37.757Z,27.90
2018-03-22T04:03:04.649Z,26.52
2018-03-22T04:05:31.856Z,28.00
2018-03-22T04:07:58.757Z,29.70
2018-03-22T04:10:25.611Z,29.60
2018-03-22T04:12:52.484Z,30.88
2018-03-22T04:15:19.344Z,28.98
2018-03-22T04:17:46.179Z,29.00
2018-03-22T04:20:13.040Z,30.92
2018-03-22T04:22:40.163Z,32.10
2018-03-22T04:25:07.321Z,31.80
2018-03-22T04:27:34.210Z,31.95
2018-03-22T04:30:01.105Z,32.65
2018-03-22T04:32:28.009Z,31.95
2018-03-22T04:34:54.831Z,33.05
2018-03-22T04:37:21.670Z,34.00
2018-03-22T04:39:48.515Z,33.28
2018-03-22T04:42:15.385Z,34.05
2018-03-22T04:44:42.245Z,34.78
2018-03-22T04:47:09.136Z,34.20
2018-03-22T04:49:35.986Z,36.35
2018-03-22T04:52:03.106Z,37.13
2018-03-22T04:54:29.965Z,37.88
2018-03-22T04:56:57.202Z,38.70
2018-03-22T04:59:24.353Z,38.10
2018-03-22T05:01:51.199Z,38.13
2018-03-22T05:04:18.358Z,36.50
2018-03-22T05:06:45.220Z,37.22
2018-03-22T05:09:12.040Z,40.28
2018-03-22T05:11:38.928Z,38.78
2018-03-22T05:14:05.768Z,37.00
2018-03-22T05:16:32.863Z,40.00
2018-03-22T05:18:59.691Z,40.80
2018-03-22T05:21:26.858Z,40.10
2018-03-22T05:23:53.727Z,40.88
2018-03-22T05:26:20.547Z,41.28
2018-03-22T05:28:47.410Z,41.03
2018-03-22T05:31:14.230Z,41.75
2018-03-22T05:33:41.096Z,41.70
2018-03-22T05:36:07.931Z,42.20
2018-03-22T05:38:34.792Z,41.53
2018-03-22T05:41:01.630Z,42.40
2018-03-22T05:43:28.862Z,41.10
2018-03-22T05:45:56.012Z,40.30
2018-03-22T05:48:22.893Z,43.10
2018-03-22T05:50:49.772Z,41.15
2018-03-22T05:53:16.599Z,40.78
2018-03-22T05:55:43.459Z,38.47
2018-03-22T05:58:10.320Z,38.20
2018-03-22T06:00:37.375Z,37.60
2018-03-22T06:03:04.282Z,37.35
2018-03-22T06:05:31.110Z,38.20
2018-03-22T06:07:57.947Z,39.17
2018-03-22T06:10:24.768Z,36.78
2018-03-22T06:12:51.599Z,37.05
2018-03-22T06:15:18.423Z,34.30
2018-03-22T06:17:45.268Z,35.70
2018-03-22T06:20:12.092Z,35.90
2018-03-22T06:22:38.923Z,34.38
2018-03-22T06:25:06.118Z,33.30
2018-03-22T06:27:32.991Z,34.20
2018-03-22T06:29:59.841Z,33.30
2018-03-22T06:32:26.960Z,35.83
2018-03-22T06:34:54.104Z,34.55
2018-03-22T06:37:21.260Z,33.83
2018-03-22T06:39:48.095Z,33.75
2018-03-22T06:42:14.967Z,33.50
2018-03-22T06:44:41.828Z,31.80
2018-03-22T06:47:08.937Z,34.05
2018-03-22T06:49:36.117Z,32.60
2018-03-22T06:52:02.980Z,33.38
2018-03-22T06:54:29.820Z,32.95
2018-03-22T06:56:56.660Z,34.33
2018-03-22T06:59:23.494Z,33.88
2018-03-22T07:01:50.331Z,33.22
2018-03-22T07:04:17.167Z,33.70
2018-03-22T07:06:44.022Z,34.05
2018-03-22T07:09:10.912Z,34.45
2018-03-22T07:11:37.768Z,32.35
2018-03-22T07:14:04.933Z,32.80
2018-03-22T07:16:31.744Z,33.53
2018-03-22T07:18:58.620Z,34.55
2018-03-22T07:21:25.472Z,32.28
2018-03-22T07:23:52.709Z,32.22
2018-03-22T07:26:19.855Z,32.92
2018-03-22T07:28:46.687Z,32.60
2018-03-22T07:31:13.545Z,33.08
2018-03-22T07:33:40.434Z,31.65
2018-03-22T07:36:07.495Z,29.35
2018-03-22T07:38:34.328Z,30.58
2018-03-22T07:41:01.427Z,29.17
2018-03-22T07:43:28.259Z,29.75
2018-03-22T07:45:55.116Z,29.08
2018-03-22T07:48:22.276Z,26.73
2018-03-22T07:50:49.095Z,28.00
2018-03-22T07:53:15.931Z,28.08
2018-03-22T07:55:42.775Z,25.67
2018-03-22T07:58:09.948Z,24.83
2018-03-22T08:00:36.787Z,24.40
2018-03-22T08:03:03.665Z,24.02
2018-03-22T08:05:30.508Z,23.25
2018-03-22T08:07:57.364Z,23.02
2018-03-22T08:10:24.240Z,22.17
2018-03-22T08:12:51.096Z,21.40
2018-03-22T08:15:17.939Z,21.77
2018-03-22T08:17:44.773Z,20.77
2018-03-22T08:20:11.639Z,21.10
2018-03-22T08:22:38.586Z,21.60
2018-03-22T08:25:05.507Z,20.48
2018-03-22T08:27:33.349Z,20.40
2018-03-22T08:30:00.325Z,18.60
2018-03-22T08:32:27.193Z,19.90
2018-03-22T08:34:54.059Z,19.92
2018-03-22T08:37:20.879Z,22.00
2018-03-22T08:39:47.722Z,21.55
2018-03-22T08:42:14.555Z,20.80
2018-03-22T08:44:41.416Z,20.75
2018-03-22T08:47:08.248Z,21.33
2018-03-22T08:49:35.086Z,19.80
2018-03-22T08:52:02.235Z,18.70
2018-03-22T08:54:29.462Z,20.10
2018-03-22T08:56:56.334Z,21.33
2018-03-22T08:59:23.565Z,22.87
2018-03-22T09:01:51.625Z,22.50
2018-03-22T09:04:18.491Z,24.00
2018-03-22T09:06:45.336Z,24.25
2018-03-22T09:09:12.201Z,23.65
2018-03-22T09:11:39.048Z,23.85
2018-03-22T09:14:05.898Z,25.35
2018-03-22T09:16:32.896Z,25.15
2018-03-22T09:19:00.049Z,24.98
2018-03-22T09:21:26.944Z,23.67
2018-03-22T09:23:53.790Z,25.45
2018-03-22T09:26:20.622Z,25.40
2018-03-22T09:28:47.751Z,26.27
2018-03-22T09:31:14.576Z,25.52
2018-03-22T09:33:41.469Z,25.02
2018-03-22T09:36:08.346Z,25.45
2018-03-22T09:38:35.576Z,24.42
2018-03-22T09:41:02.406Z,25.90
2018-03-22T09:43:29.532Z,26.67
2018-03-22T09:45:56.424Z,24.05
2018-03-22T09:48:23.277Z,24.95
2018-03-22T09:50:50.111Z,26.92
2018-03-22T09:53:16.979Z,25.98
2018-03-22T09:55:43.835Z,25.42
2018-03-22T09:58:10.696Z,24.15
2018-03-22T10:00:37.531Z,25.92
2018-03-22T10:03:04.384Z,26.33
2018-03-22T10:05:31.218Z,24.12
2018-03-22T10:07:58.069Z,24.80
2018-03-22T10:10:24.920Z,24.50
2018-03-22T10:12:51.747Z,24.65
2018-03-22T10:15:18.587Z,24.52
2018-03-22T10:17:45.946Z,24.17
2018-03-22T10:20:13.637Z,23.30
2018-03-22T10:22:40.764Z,24.20
2018-03-22T10:25:07.623Z,23.80
2018-03-22T10:27:34.474Z,24.10
2018-03-22T10:30:01.601Z,22.60
2018-03-22T10:32:28.760Z,22.07
2018-03-22T10:34:55.629Z,24.65
2018-03-22T10:37:22.451Z,22.83
2018-03-22T10:39:49.287Z,21.80
2018-03-22T10:42:16.369Z,22.20
2018-03-22T10:44:43.337Z,21.50
2018-03-22T10:47:10.419Z,21.93
2018-03-22T10:49:37.284Z,20.17
2018-03-22T10:52:04.108Z,21.60
2018-03-22T10:54:31.255Z,19.85
2018-03-22T10:56:58.313Z,19.50
2018-03-22T10:59:25.152Z,19.87
2018-03-22T11:01:52.036Z,18.20
2018-03-22T11:04:18.864Z,18.60
2018-03-22T11:06:45.736Z,17.17
2018-03-22T11:09:12.570Z,18.02
2018-03-22T11:11:39.781Z,17.77
2018-03-22T11:14:06.624Z,18.23
2018-03-22T11:16:33.636Z,16.27
2018-03-22T11:19:00.831Z,16.87
2018-03-22T11:21:27.659Z,16.45
2018-03-22T11:23:54.811Z,17.00
2018-03-22T11:26:21.648Z,16.05
2018-03-22T11:28:48.492Z,16.15
2018-03-22T11:31:15.353Z,15.20
2018-03-22T11:33:42.403Z,16.53
2018-03-22T11:36:09.267Z,16.07
2018-03-22T11:38:36.379Z,14.53
2018-03-22T11:41:03.652Z,14.35
2018-03-22T11:43:30.526Z,15.23
2018-03-22T11:45:57.416Z,14.60
2018-03-22T11:48:24.271Z,15.10
2018-03-22T11:50:51.139Z,14.73
2018-03-22T11:55:24.752Z,14.85
2018-03-22T11:57:51.571Z,14.10
2018-03-22T12:00:18.730Z,13.43
2018-03-22T12:02:45.600Z,13.75
2018-03-22T12:05:12.431Z,12.65
2018-03-22T12:07:39.340Z,13.45
2018-03-22T12:10:06.239Z,12.48
2018-03-22T12:12:33.141Z,11.48
2018-03-22T12:15:00.090Z,11.95
2018-03-22T12:17:26.944Z,10.52
2018-03-22T12:19:54.081Z,10.95
2018-03-22T12:22:21.228Z,10.25
2018-03-22T12:24:48.077Z,10.02
2018-03-22T12:27:15.161Z,10.20
2018-03-22T12:29:42.012Z,9.30
2018-03-22T12:32:08.883Z,8.80
2018-03-22T12:34:35.772Z,8.70
2018-03-22T12:37:02.608Z,7.72
2018-03-22T12:39:29.500Z,7.57
2018-03-22T12:41:56.340Z,7.93
2018-03-22T12:44:23.375Z,7.97
2018-03-22T12:46:50.216Z,5.83
2018-03-22T12:49:17.052Z,6.80
2018-03-22T12:51:43.876Z,5.82
2018-03-22T12:54:11.008Z,5.40
2018-03-22T12:56:38.160Z,5.18
2018-03-22T12:59:05.211Z,5.57
2018-03-22T13:01:32.067Z,4.68
2018-03-22T13:03:58.880Z,4.40
2018-03-22T13:06:25.738Z,3.80
2018-03-22T13:08:52.605Z,3.90
2018-03-22T13:11:19.435Z,4.40
2018-03-22T13:13:46.328Z,3.80
2018-03-22T13:16:13.189Z,3.65
2018-03-22T13:18:40.175Z,3.50
2018-03-22T13:21:07.078Z,3.87
2018-03-22T13:23:33.946Z,2.92
2018-03-22T13:26:00.991Z,3.10
2018-03-22T13:28:28.043Z,3.33
2018-03-22T13:30:54.872Z,3.53
2018-03-22T13:33:21.714Z,3.10
2018-03-22T13:35:48.929Z,2.97
2018-03-22T13:38:16.029Z,2.70
2018-03-22T13:40:42.844Z,2.87
2018-03-22T13:43:10.021Z,2.90
2018-03-22T13:45:36.839Z,2.95
2018-03-22T13:48:03.715Z,2.60
2018-03-22T13:50:30.859Z,2.60
2018-03-22T13:52:57.747Z,2.67
2018-03-22T13:55:24.564Z,2.78
2018-03-22T13:57:51.463Z,2.28
2018-03-22T14:00:18.322Z,2.97
2018-03-22T14:02:45.150Z,2.70
2018-03-22T14:05:11.962Z,2.60
2018-03-22T14:07:39.875Z,2.40
2018-03-22T14:10:06.723Z,2.47
2018-03-22T14:12:33.590Z,3.22
2018-03-22T14:15:00.423Z,26.55
2018-03-22T14:17:27.251Z,4.70
2018-03-22T14:19:54.067Z,3.10
2018-03-22T14:22:20.904Z,2.45
2018-03-22T14:24:47.711Z,2.40
2018-03-22T14:27:14.835Z,2.70
2018-03-22T14:29:41.654Z,2.33
2018-03-22T14:32:08.742Z,2.10
2018-03-22T14:34:35.552Z,2.00
2018-03-22T14:37:02.413Z,1.80
2018-03-22T14:39:29.223Z,1.98
2018-03-22T14:41:56.092Z,4.70
2018-03-22T14:44:22.923Z,2.30
2018-03-22T14:46:49.776Z,2.15
2018-03-22T14:49:16.593Z,1.92
2018-03-22T14:51:43.679Z,2.10
2018-03-22T14:54:10.502Z,2.20
2018-03-22T14:56:37.344Z,2.30
2018-03-22T14:59:04.206Z,2.20
2018-03-22T15:01:31.288Z,2.10
2018-03-22T15:03:58.148Z,2.15
2018-03-22T15:06:25.152Z,2.90
2018-03-22T15:08:52.020Z,2.20
2018-03-22T15:11:19.045Z,2.20
2018-03-22T15:13:45.902Z,2.10
2018-03-22T15:16:12.765Z,2.10
2018-03-22T15:18:40.542Z,2.42
2018-03-22T15:21:07.539Z,2.40
2018-03-22T15:23:34.396Z,2.80
2018-03-22T15:26:01.199Z,2.40
2018-03-22T15:28:28.086Z,2.45
2018-03-22T15:30:54.916Z,2.67
2018-03-22T15:33:21.785Z,2.80
2018-03-22T15:35:48.599Z,2.80
2018-03-22T15:38:15.454Z,2.90
2018-03-22T15:40:42.288Z,2.93
2018-03-22T15:43:09.108Z,2.62
2018-03-22T15:45:36.427Z,2.95
2018-03-22T15:48:03.258Z,3.20
2018-03-22T15:50:30.470Z,3.57
2018-03-22T15:52:57.336Z,3.17
2018-03-22T15:55:24.180Z,3.42
2018-03-22T15:57:51.009Z,3.27
2018-03-22T16:00:17.844Z,3.28
2018-03-22T16:02:44.675Z,3.20
2018-03-22T16:05:11.741Z,3.40
2018-03-22T16:07:38.744Z,3.50
2018-03-22T16:10:05.835Z,3.87
2018-03-22T16:12:32.649Z,3.85
2018-03-22T16:14:59.840Z,4.57
2018-03-22T16:17:26.643Z,3.60
2018-03-22T16:19:53.493Z,3.50
2018-03-22T16:22:20.340Z,3.60
2018-03-22T16:24:47.521Z,3.70
2018-03-22T16:27:14.567Z,3.70
2018-03-22T16:29:41.714Z,3.80
2018-03-22T16:32:08.548Z,3.62
2018-03-22T16:34:35.377Z,4.05
2018-03-22T16:37:02.221Z,4.00
2018-03-22T16:39:29.077Z,3.95
2018-03-22T16:41:55.924Z,4.20
2018-03-22T16:44:22.775Z,4.20
2018-03-22T16:46:49.645Z,4.80
2018-03-22T16:49:16.769Z,4.00
2018-03-22T16:51:43.599Z,4.50
2018-03-22T16:54:10.415Z,4.68
2018-03-22T16:56:37.340Z,5.00
2018-03-22T16:59:04.328Z,4.90
2018-03-22T17:01:31.272Z,4.53
2018-03-22T17:03:58.271Z,4.90
2018-03-22T17:06:25.413Z,4.30
2018-03-22T17:08:52.742Z,4.37
2018-03-22T17:11:19.607Z,4.70
2018-03-22T17:13:46.468Z,5.07
2018-03-22T17:16:13.580Z,5.17
2018-03-22T17:18:40.730Z,6.20
2018-03-22T17:21:07.555Z,7.37
2018-03-22T17:23:34.794Z,10.45
2018-03-22T17:26:01.679Z,12.37
2018-03-22T17:28:28.822Z,14.60
2018-03-22T17:30:56.176Z,20.77
2018-03-22T17:33:23.328Z,38.20
2018-03-22T17:35:50.189Z,28.50
2018-03-22T17:38:17.213Z,23.62
2018-03-22T17:40:44.057Z,25.40
2018-03-22T17:43:10.883Z,25.87
2018-03-22T17:45:39.250Z,24.30
2018-03-22T17:48:06.096Z,22.77
2018-03-22T17:50:32.932Z,21.92
2018-03-22T17:53:00.019Z,22.07
2018-03-22T17:55:27.168Z,24.52
2018-03-22T17:57:54.034Z,23.73
2018-03-22T18:00:20.876Z,20.88
2018-03-22T18:02:48.004Z,21.37
2018-03-22T18:05:14.869Z,19.67
2018-03-22T18:07:41.765Z,19.73
2018-03-22T18:10:08.945Z,20.08
2018-03-22T18:12:35.822Z,21.62
2018-03-22T18:15:02.831Z,20.37
2018-03-22T18:17:29.702Z,19.87
2018-03-22T18:19:56.589Z,20.40
2018-03-22T18:22:23.446Z,18.80
2018-03-22T18:24:50.565Z,18.80
2018-03-22T18:27:17.385Z,22.02
2018-03-22T18:29:44.220Z,18.80
2018-03-22T18:32:11.087Z,18.60
2018-03-22T18:34:38.302Z,20.53
2018-03-22T18:37:05.443Z,18.37
2018-03-22T18:39:32.322Z,17.80
2018-03-22T18:41:59.181Z,18.27
2018-03-22T18:44:26.283Z,18.62
2018-03-22T18:46:53.100Z,17.73
2018-03-22T18:49:20.284Z,18.23
2018-03-22T18:51:47.124Z,19.08
2018-03-22T18:54:14.269Z,16.98
2018-03-22T18:56:41.136Z,16.95
2018-03-22T18:59:08.269Z,16.95
2018-03-22T19:01:35.152Z,17.58
2018-03-22T19:04:01.976Z,15.82
2018-03-22T19:06:28.819Z,15.57
2018-03-22T19:08:55.950Z,15.05
2018-03-22T19:11:23.095Z,15.70
2018-03-22T19:13:50.197Z,14.65
2018-03-22T19:16:17.297Z,14.87
2018-03-22T19:18:44.161Z,15.18
2018-03-22T19:21:10.990Z,14.10
2018-03-22T19:23:37.852Z,14.35
2018-03-22T19:26:05.628Z,14.52
2018-03-22T19:28:32.492Z,13.62
2018-03-22T19:30:59.407Z,14.00
2018-03-22T19:33:26.428Z,13.82
2018-03-22T19:35:53.504Z,13.27
2018-03-22T19:38:20.360Z,13.38
2018-03-22T19:40:47.232Z,13.77
2018-03-22T19:43:14.413Z,13.20
2018-03-22T19:45:41.291Z,13.30
2018-03-22T19:48:08.413Z,13.43
2018-03-22T19:50:35.313Z,12.75
2018-03-22T19:53:02.168Z,13.25
2018-03-22T19:55:29.000Z,12.70
2018-03-22T19:57:55.930Z,13.20
2018-03-22T20:00:22.808Z,12.23
2018-03-22T20:02:49.980Z,14.02
2018-03-22T20:05:17.018Z,14.15
2018-03-22T20:07:43.969Z,14.68
2018-03-22T20:10:10.826Z,16.95
2018-03-22T20:12:37.958Z,14.85
2018-03-22T20:15:04.776Z,14.85
2018-03-22T20:17:31.624Z,15.15
2018-03-22T20:19:58.905Z,15.05
2018-03-22T20:22:26.052Z,15.15
2018-03-22T20:24:52.896Z,14.90
2018-03-22T20:27:19.732Z,16.37
2018-03-22T20:29:46.600Z,15.85
2018-03-22T20:32:13.444Z,15.70
2018-03-22T20:34:40.314Z,17.05
2018-03-22T20:37:07.206Z,16.90
2018-03-22T20:39:34.368Z,17.20
2018-03-22T20:42:01.208Z,16.80
2018-03-22T20:44:28.110Z,15.85
2018-03-22T20:46:54.984Z,14.50
2018-03-22T20:49:21.861Z,16.20
2018-03-22T20:51:48.733Z,16.77
2018-03-22T20:54:15.840Z,17.62
2018-03-22T20:56:42.701Z,18.00
2018-03-22T20:59:09.550Z,16.87
2018-03-22T21:01:36.673Z,18.00
2018-03-22T21:04:03.815Z,16.90
2018-03-22T21:06:33.658Z,16.35
2018-03-22T21:09:00.487Z,17.10
2018-03-22T21:11:27.333Z,16.95
2018-03-22T21:13:54.204Z,16.65
2018-03-22T21:16:21.039Z,17.65
2018-03-22T21:18:47.912Z,18.70
2018-03-22T21:21:14.829Z,18.90
2018-03-22T21:23:41.704Z,18.83
2018-03-22T21:26:08.552Z,19.00
2018-03-22T21:28:35.392Z,18.10
2018-03-22T21:31:02.273Z,27.13
2018-03-22T21:33:29.160Z,45.25
2018-03-22T21:35:56.133Z,37.58
2018-03-22T21:38:22.976Z,24.48
2018-03-22T21:40:50.053Z,19.58
2018-03-22T21:43:16.895Z,18.73
2018-03-22T21:45:43.764Z,20.20
2018-03-22T21:48:10.656Z,19.65
2018-03-22T21:50:43.484Z,19.12
2018-03-22T21:53:10.312Z,17.40
2018-03-22T21:55:37.361Z,23.15
2018-03-22T21:58:04.198Z,24.80
2018-03-22T22:00:31.097Z,40.50
2018-03-22T22:02:57.953Z,20.23
2018-03-22T22:05:24.786Z,26.12
2018-03-22T22:07:51.890Z,35.60
2018-03-22T22:10:18.778Z,31.90
2018-03-22T22:12:45.741Z,27.98
2018-03-22T22:15:12.657Z,25.70
2018-03-22T22:17:39.503Z,21.50
2018-03-22T22:20:06.344Z,19.58
2018-03-22T22:22:33.199Z,17.58
2018-03-22T22:25:00.024Z,17.02
2018-03-22T22:27:26.847Z,17.00
2018-03-22T22:29:53.981Z,16.60
2018-03-22T22:32:20.841Z,16.00
2018-03-22T22:34:47.712Z,17.10
2018-03-22T22:37:14.567Z,16.97
2018-03-22T22:39:41.440Z,16.37
2018-03-22T22:42:08.284Z,16.62
2018-03-22T22:44:35.139Z,17.58
2018-03-22T22:47:02.029Z,16.95
2018-03-22T22:49:29.051Z,16.35
2018-03-22T22:51:56.183Z,17.05
2018-03-22T22:54:23.048Z,15.75
2018-03-22T22:56:49.937Z,17.50
2018-03-22T22:59:16.822Z,16.58
2018-03-22T23:01:43.967Z,15.55
2018-03-22T23:04:11.121Z,14.55
2018-03-22T23:06:37.977Z,15.50
2018-03-22T23:09:04.808Z,16.10
2018-03-22T23:11:31.812Z,15.15
2018-03-22T23:13:58.900Z,14.70
2018-03-22T23:16:25.728Z,15.93
2018-03-22T23:18:52.582Z,16.27
2018-03-22T23:21:19.460Z,16.05
2018-03-22T23:23:46.577Z,16.23
2018-03-22T23:26:13.403Z,17.30
2018-03-22T23:28:40.264Z,17.05
2018-03-22T23:31:07.108Z,18.17
2018-03-22T23:33:34.257Z,17.30
2018-03-22T23:36:01.121Z,17.37
2018-03-22T23:38:27.944Z,16.80
2018-03-22T23:40:55.067Z,16.65
2018-03-22T23:43:22.155Z,16.05
2018-03-22T23:45:49.296Z,16.08
2018-03-22T23:48:16.445Z,16.50
2018-03-22T23:50:43.303Z,16.80
2018-03-22T23:53:10.138Z,18.05
2018-03-22T23:55:36.954Z,17.05
2018-03-22T23:58:04.133Z,16.10
